createdAt,value
2018-11-26T00:01:33.905Z,93.20
2018-11-26T00:04:03.951Z,91.20
2018-11-26T00:06:36.683Z,97.90
2018-11-26T00:09:04.397Z,101.53
2018-11-26T00:11:36.148Z,95.93
2018-11-26T00:14:03.715Z,102.90
2018-11-26T00:16:31.311Z,103.70
2018-11-26T00:18:59.039Z,95.47
2018-11-26T00:21:26.655Z,103.37
2018-11-26T00:23:54.199Z,93.43
2018-11-26T00:26:21.671Z,100.70
2018-11-26T00:28:50.107Z,98.43
2018-11-26T00:31:23.057Z,97.27
2018-11-26T00:33:56.132Z,90.07
2018-11-26T00:36:23.805Z,96.30
2018-11-26T00:38:51.327Z,96.37
2018-11-26T00:41:18.898Z,103.27
2018-11-26T00:43:46.535Z,94.87
2018-11-26T00:46:14.025Z,92.97
2018-11-26T00:48:41.472Z,91.13
2018-11-26T00:51:09.117Z,89.03
2018-11-26T00:53:36.911Z,83.20
2018-11-26T00:56:09.871Z,78.57
2018-11-26T00:58:37.478Z,81.90
2018-11-26T01:01:05.069Z,80.57
2018-11-26T01:03:32.728Z,82.77
2018-11-26T01:06:00.250Z,77.80
2018-11-26T01:08:32.993Z,76.13
2018-11-26T01:11:00.433Z,78.57
2018-11-26T01:13:28.131Z,79.40
2018-11-26T01:15:55.861Z,78.03
2018-11-26T01:18:23.335Z,77.73
2018-11-26T01:20:50.842Z,74.73
2018-11-26T01:23:18.673Z,72.27
2018-11-26T01:25:46.283Z,79.07
2018-11-26T01:28:13.893Z,72.33
2018-11-26T01:30:41.562Z,69.40
2018-11-26T01:33:09.006Z,74.20
2018-11-26T01:35:36.675Z,69.17
2018-11-26T01:38:04.307Z,68.97
2018-11-26T01:40:37.018Z,69.23
2018-11-26T01:43:04.734Z,66.07
2018-11-26T01:45:32.187Z,63.20
2018-11-26T01:47:59.724Z,62.47
2018-11-26T01:50:27.454Z,64.97
2018-11-26T01:52:55.141Z,59.10
2018-11-26T01:55:23.014Z,62.60
2018-11-26T01:57:50.568Z,62.57
2018-11-26T02:00:19.788Z,56.93
2018-11-26T02:02:47.240Z,59.27
2018-11-26T02:05:14.964Z,60.53
2018-11-26T02:07:42.519Z,57.83
2018-11-26T02:10:10.724Z,55.97
2018-11-26T02:12:38.207Z,55.80
2018-11-26T02:15:06.674Z,53.10
2018-11-26T02:17:34.352Z,59.43
2018-11-26T02:20:02.039Z,56.30
2018-11-26T02:22:30.137Z,58.90
2018-11-26T02:24:57.706Z,58.40
2018-11-26T02:27:25.301Z,52.50
2018-11-26T02:29:52.807Z,59.10
2018-11-26T02:32:24.482Z,52.47
2018-11-26T02:34:52.191Z,51.57
2018-11-26T02:37:24.362Z,52.03
2018-11-26T02:39:51.803Z,54.43
2018-11-26T02:42:22.636Z,53.00
2018-11-26T02:45:24.570Z,51.97
2018-11-26T02:47:52.516Z,59.30
2018-11-26T02:50:20.093Z,49.33
2018-11-26T02:52:47.629Z,57.50
2018-11-26T02:55:15.254Z,53.03
2018-11-26T02:57:42.866Z,51.77
2018-11-26T03:00:11.208Z,53.53
2018-11-26T03:02:44.180Z,54.37
2018-11-26T03:05:12.380Z,57.83
2018-11-26T03:07:39.867Z,54.50
2018-11-26T03:10:08.947Z,50.47
2018-11-26T03:12:37.182Z,50.13
2018-11-26T03:15:06.220Z,46.90
2018-11-26T03:17:39.175Z,49.70
2018-11-26T03:20:07.424Z,49.47
2018-11-26T03:22:34.955Z,50.90
2018-11-26T03:25:02.589Z,53.83
2018-11-26T03:27:30.049Z,41.63
2018-11-26T03:29:57.510Z,47.63
2018-11-26T03:32:30.417Z,42.10
2018-11-26T03:34:57.979Z,44.20
2018-11-26T03:37:26.215Z,49.47
2018-11-26T03:39:53.929Z,44.70
2018-11-26T03:42:26.984Z,49.30
2018-11-26T03:44:54.570Z,50.93
2018-11-26T03:47:22.166Z,46.63
2018-11-26T03:49:49.902Z,48.13
2018-11-26T03:52:17.971Z,46.13
2018-11-26T03:54:50.923Z,43.17
2018-11-26T03:57:18.701Z,42.37
2018-11-26T03:59:46.377Z,43.20
2018-11-26T04:02:15.649Z,43.60
2018-11-26T04:04:43.650Z,42.77
2018-11-26T04:07:11.247Z,48.23
2018-11-26T04:09:38.906Z,46.90
2018-11-26T04:12:06.552Z,45.20
2018-11-26T04:14:34.084Z,47.83
2018-11-26T04:17:07.031Z,46.80
2018-11-26T04:19:34.459Z,47.80
2018-11-26T04:22:02.173Z,57.07
2018-11-26T04:24:29.795Z,54.87
2018-11-26T04:26:58.543Z,49.27
2018-11-26T04:29:24.920Z,52.47
2018-11-26T04:31:52.595Z,51.57
2018-11-26T04:34:20.461Z,56.33
2018-11-26T04:36:48.051Z,53.53
2018-11-26T04:39:15.635Z,50.80
2018-11-26T04:41:43.541Z,54.07
2018-11-26T04:44:11.201Z,55.70
2018-11-26T04:46:44.426Z,55.77
2018-11-26T04:49:12.207Z,60.33
2018-11-26T04:51:39.723Z,56.20
2018-11-26T04:54:07.217Z,59.67
2018-11-26T04:56:35.047Z,53.37
2018-11-26T04:59:02.580Z,58.53
2018-11-26T05:01:30.285Z,57.13
2018-11-26T05:03:57.702Z,60.90
2018-11-26T05:06:25.230Z,63.47
2018-11-26T05:08:58.369Z,60.13
2018-11-26T05:11:31.261Z,63.77
2018-11-26T05:13:59.677Z,57.73
2018-11-26T05:16:32.720Z,61.80
2018-11-26T05:19:00.429Z,61.83
2018-11-26T05:21:28.050Z,60.33
2018-11-26T05:23:55.469Z,53.30
2018-11-26T05:26:28.767Z,53.23
2018-11-26T05:28:56.340Z,54.90
2018-11-26T05:31:24.258Z,50.03
2018-11-26T05:33:57.405Z,50.67
2018-11-26T05:36:30.316Z,57.17
2018-11-26T05:38:58.565Z,54.20
2018-11-26T05:41:26.146Z,56.23
2018-11-26T05:43:53.745Z,53.53
2018-11-26T05:46:21.258Z,49.43
2018-11-26T05:48:54.158Z,51.27
2018-11-26T05:51:21.808Z,59.90
2018-11-26T05:53:49.584Z,48.27
2018-11-26T05:56:17.090Z,54.17
2018-11-26T05:58:44.766Z,55.37
2018-11-26T06:01:12.695Z,50.07
2018-11-26T06:03:45.717Z,52.03
2018-11-26T06:06:13.276Z,52.30
2018-11-26T06:08:40.748Z,54.07
2018-11-26T06:11:08.364Z,49.03
2018-11-26T06:13:36.093Z,48.37
2018-11-26T06:16:03.820Z,50.13
2018-11-26T06:18:31.349Z,49.60
2018-11-26T06:20:58.784Z,51.33
2018-11-26T06:23:26.840Z,49.57
2018-11-26T06:25:54.545Z,48.60
2018-11-26T06:28:22.349Z,43.83
2018-11-26T06:30:49.873Z,44.93
2018-11-26T06:33:17.528Z,43.17
2018-11-26T06:35:45.092Z,43.50
2018-11-26T06:38:12.524Z,41.30
2018-11-26T06:40:40.094Z,39.43
2018-11-26T06:43:13.104Z,47.30
2018-11-26T06:45:40.614Z,43.43
2018-11-26T06:48:08.180Z,43.83
2018-11-26T06:50:35.822Z,47.77
2018-11-26T06:53:03.471Z,47.50
2018-11-26T06:55:31.134Z,46.33
2018-11-26T06:57:58.820Z,58.73
2018-11-26T07:00:26.360Z,62.63
2018-11-26T07:02:54.040Z,57.37
2018-11-26T07:05:22.379Z,54.77
2018-11-26T07:07:50.140Z,54.97
2018-11-26T07:10:18.093Z,57.37
2018-11-26T07:12:45.869Z,59.77
2018-11-26T07:15:14.438Z,61.80
2018-11-26T07:17:42.143Z,59.10
2018-11-26T07:20:15.204Z,70.60
2018-11-26T07:22:42.729Z,67.37
2018-11-26T07:25:11.164Z,70.67
2018-11-26T07:27:38.717Z,69.83
2018-11-26T07:30:10.005Z,72.90
2018-11-26T07:32:37.703Z,69.83
2018-11-26T07:35:05.878Z,70.00
2018-11-26T07:37:33.686Z,67.70
2018-11-26T07:40:01.278Z,74.60
2018-11-26T07:42:29.012Z,70.50
2018-11-26T07:44:57.699Z,72.27
2018-11-26T07:47:25.420Z,69.30
2018-11-26T07:49:53.092Z,71.40
2018-11-26T07:52:20.608Z,58.23
2018-11-26T07:54:48.290Z,64.30
2018-11-26T07:57:16.147Z,56.83
2018-11-26T07:59:43.648Z,57.73
2018-11-26T08:02:11.105Z,65.20
2018-11-26T08:04:38.783Z,66.53
2018-11-26T08:07:06.580Z,64.13
2018-11-26T08:09:35.137Z,71.17
2018-11-26T08:12:02.766Z,72.40
2018-11-26T08:14:30.265Z,65.80
2018-11-26T08:16:57.698Z,68.80
2018-11-26T08:19:25.173Z,78.37
2018-11-26T08:21:52.863Z,78.73
2018-11-26T08:24:20.374Z,70.80
2018-11-26T08:26:47.877Z,69.23
2018-11-26T08:29:15.368Z,65.30
2018-11-26T08:31:42.998Z,73.53
2018-11-26T08:34:10.569Z,72.47
2018-11-26T08:36:43.139Z,65.70
2018-11-26T08:39:15.193Z,61.13
2018-11-26T08:41:48.229Z,66.50
2018-11-26T08:44:21.455Z,69.40
2018-11-26T08:46:54.400Z,64.70
2018-11-26T08:49:25.920Z,70.60
2018-11-26T08:51:53.861Z,70.27
2018-11-26T08:54:21.493Z,63.83
2018-11-26T08:56:49.162Z,61.00
2018-11-26T08:59:22.315Z,62.40
2018-11-26T09:01:51.476Z,65.80
2018-11-26T09:04:19.879Z,63.13
2018-11-26T09:06:53.073Z,63.33
2018-11-26T09:09:20.576Z,69.80
2018-11-26T09:11:47.990Z,66.13
2018-11-26T09:14:15.567Z,66.83
2018-11-26T09:16:48.555Z,65.73
2018-11-26T09:19:16.217Z,69.13
2018-11-26T09:21:43.789Z,66.47
2018-11-26T09:24:11.348Z,75.27
2018-11-26T09:26:38.846Z,73.03
2018-11-26T09:29:06.426Z,70.23
2018-11-26T09:31:39.585Z,78.63
2018-11-26T09:34:07.375Z,79.07
2018-11-26T09:36:40.237Z,72.90
2018-11-26T09:39:09.723Z,79.73
2018-11-26T09:41:37.140Z,76.67
2018-11-26T09:44:05.111Z,79.27
2018-11-26T09:46:32.583Z,77.07
2018-11-26T09:49:00.023Z,75.30
2018-11-26T09:51:27.585Z,81.53
2018-11-26T09:53:55.106Z,81.47
2018-11-26T09:56:28.206Z,80.50
2018-11-26T09:58:55.901Z,76.97
2018-11-26T10:01:23.572Z,79.27
2018-11-26T10:03:56.788Z,79.17
2018-11-26T10:06:24.231Z,83.73
2018-11-26T10:08:51.758Z,85.43
2018-11-26T10:11:19.230Z,89.47
2018-11-26T10:13:46.653Z,90.83
2018-11-26T10:16:14.085Z,97.80
2018-11-26T10:18:41.534Z,93.97
2018-11-26T10:21:08.987Z,92.23
2018-11-26T10:23:36.415Z,97.33
2018-11-26T10:26:03.917Z,80.27
2018-11-26T10:28:31.339Z,89.97
2018-11-26T10:30:58.842Z,94.43
2018-11-26T10:33:26.484Z,86.43
2018-11-26T10:35:59.461Z,84.13
2018-11-26T10:38:26.942Z,84.10
2018-11-26T10:40:54.383Z,79.43
2018-11-26T10:43:21.865Z,82.03
2018-11-26T10:45:49.832Z,81.80
2018-11-26T10:48:17.277Z,75.93
2018-11-26T10:50:44.868Z,83.07
2018-11-26T10:53:12.537Z,80.67
2018-11-26T10:55:40.209Z,85.37
2018-11-26T10:58:07.635Z,77.43
2018-11-26T11:00:38.344Z,85.43
2018-11-26T11:03:06.170Z,73.90
2018-11-26T11:05:33.761Z,72.07
2018-11-26T11:08:01.307Z,75.80
2018-11-26T11:10:29.409Z,80.77
2018-11-26T11:12:56.987Z,77.13
2018-11-26T11:15:24.599Z,72.20
2018-11-26T11:17:52.105Z,78.47
2018-11-26T11:20:20.151Z,77.70
2018-11-26T11:22:47.639Z,75.77
2018-11-26T11:25:15.591Z,74.20
2018-11-26T11:27:43.070Z,77.40
2018-11-26T11:30:13.207Z,77.03
2018-11-26T11:32:41.294Z,69.10
2018-11-26T11:35:09.195Z,68.93
2018-11-26T11:37:36.767Z,69.57
2018-11-26T11:40:06.021Z,67.87
2018-11-26T11:42:33.505Z,71.20
2018-11-26T11:45:01.208Z,61.57
2018-11-26T11:47:28.995Z,71.87
2018-11-26T11:49:56.563Z,60.77
2018-11-26T11:52:24.067Z,68.43
2018-11-26T11:54:51.649Z,64.13
2018-11-26T11:57:19.099Z,59.23
2018-11-26T11:59:46.751Z,55.80
2018-11-26T12:02:16.100Z,53.07
2018-11-26T12:04:42.049Z,50.07
2018-11-26T12:07:09.691Z,41.80
2018-11-26T12:09:37.121Z,46.93
2018-11-26T12:12:04.724Z,45.90
2018-11-26T12:14:32.213Z,42.93
2018-11-26T12:16:59.633Z,43.83
2018-11-26T12:19:27.276Z,40.63
2018-11-26T12:21:54.985Z,43.37
2018-11-26T12:24:22.581Z,40.27
2018-11-26T12:26:50.021Z,36.73
2018-11-26T12:29:23.047Z,40.23
2018-11-26T12:31:50.508Z,33.00
2018-11-26T12:34:23.664Z,38.67
2018-11-26T12:36:51.089Z,33.23
2018-11-26T12:39:18.849Z,38.00
2018-11-26T12:41:51.933Z,32.07
2018-11-26T12:44:25.023Z,31.13
2018-11-26T12:46:52.711Z,32.37
2018-11-26T12:49:20.263Z,34.77
2018-11-26T12:51:49.593Z,33.40
2018-11-26T12:54:22.651Z,27.73
2018-11-26T12:56:50.259Z,30.57
2018-11-26T12:59:17.712Z,28.67
2018-11-26T13:01:52.159Z,28.23
2018-11-26T13:04:19.661Z,27.47
2018-11-26T13:06:47.111Z,27.30
2018-11-26T13:09:14.809Z,26.80
2018-11-26T13:11:42.669Z,26.60
2018-11-26T13:14:10.362Z,27.60
2018-11-26T13:16:38.015Z,32.27
2018-11-26T13:19:05.774Z,34.70
2018-11-26T13:21:33.188Z,34.47
2018-11-26T13:24:01.053Z,45.87
2018-11-26T13:26:28.677Z,52.13
2018-11-26T13:28:56.159Z,48.77
2018-11-26T13:31:24.862Z,50.70
2018-11-26T13:33:57.838Z,50.13
2018-11-26T13:36:25.330Z,53.27
2018-11-26T13:38:52.886Z,44.77
2018-11-26T13:41:20.370Z,48.80
2018-11-26T13:43:48.228Z,46.33
2018-11-26T13:46:15.915Z,48.27
2018-11-26T13:48:43.380Z,48.03
2018-11-26T13:51:16.430Z,49.37
2018-11-26T13:53:44.504Z,53.80
2018-11-26T13:56:11.989Z,49.10
2018-11-26T13:58:39.576Z,50.00
2018-11-26T14:01:07.066Z,43.63
2018-11-26T14:03:34.484Z,49.03
2018-11-26T14:06:02.015Z,45.27
2018-11-26T14:08:29.599Z,45.57
2018-11-26T14:11:02.906Z,47.17
2018-11-26T14:13:30.625Z,50.20
2018-11-26T14:15:59.000Z,54.40
2018-11-26T14:18:25.806Z,47.07
2018-11-26T14:20:53.486Z,49.87
2018-11-26T14:23:21.106Z,49.00
2018-11-26T14:25:48.682Z,46.80
2018-11-26T14:28:16.296Z,45.60
2018-11-26T14:30:43.871Z,44.90
2018-11-26T14:33:11.368Z,48.60
2018-11-26T14:35:38.991Z,43.10
2018-11-26T14:38:07.355Z,42.93
2018-11-26T14:40:36.745Z,45.07
2018-11-26T14:43:04.555Z,43.60
2018-11-26T14:45:32.238Z,43.90
2018-11-26T14:47:59.793Z,46.00
2018-11-26T14:50:27.282Z,35.47
2018-11-26T14:52:54.729Z,43.20
2018-11-26T14:55:23.734Z,42.35
2018-11-26T14:57:51.199Z,40.47
2018-11-26T15:00:19.481Z,41.60
2018-11-26T15:02:47.177Z,42.90
2018-11-26T15:05:14.975Z,41.30
2018-11-26T15:07:42.474Z,44.00
2018-11-26T15:10:10.987Z,46.17
2018-11-26T15:12:38.699Z,45.03
2018-11-26T15:15:07.767Z,42.20
2018-11-26T15:17:35.259Z,47.43
2018-11-26T15:20:02.669Z,48.13
2018-11-26T15:22:30.164Z,51.70
2018-11-26T15:24:57.881Z,44.57
2018-11-26T15:27:25.708Z,48.20
2018-11-26T15:29:53.151Z,54.03
2018-11-26T15:32:20.639Z,52.80
2018-11-26T15:34:48.395Z,52.37
2018-11-26T15:37:15.943Z,45.23
2018-11-26T15:39:48.955Z,52.70
2018-11-26T15:42:16.513Z,46.47
2018-11-26T15:44:43.955Z,44.37
2018-11-26T15:47:17.143Z,47.47
2018-11-26T15:49:45.062Z,45.27
2018-11-26T15:52:12.890Z,47.53
2018-11-26T15:54:40.356Z,44.07
2018-11-26T15:57:07.864Z,49.73
2018-11-26T15:59:35.480Z,63.83
2018-11-26T16:02:03.190Z,61.90
2018-11-26T16:04:31.373Z,61.13
2018-11-26T16:06:58.993Z,55.97
2018-11-26T16:09:26.519Z,65.40
2018-11-26T16:11:53.971Z,68.63
2018-11-26T16:14:21.473Z,64.17
2018-11-26T16:16:49.060Z,61.20
2018-11-26T16:19:16.540Z,60.57
2018-11-26T16:21:43.966Z,58.97
2018-11-26T16:24:16.892Z,58.97
2018-11-26T16:26:44.342Z,55.23
2018-11-26T16:29:11.818Z,51.37
2018-11-26T16:31:39.400Z,60.33
2018-11-26T16:34:07.112Z,52.83
2018-11-26T16:36:34.880Z,54.00
2018-11-26T16:39:02.445Z,58.17
2018-11-26T16:41:29.910Z,59.67
2018-11-26T16:43:57.429Z,62.23
2018-11-26T16:46:24.944Z,57.47
2018-11-26T16:48:52.376Z,53.60
2018-11-26T16:51:20.037Z,48.47
2018-11-26T16:53:53.254Z,55.93
2018-11-26T16:56:20.812Z,50.87
2018-11-26T16:58:48.263Z,56.03
2018-11-26T17:01:16.333Z,57.23
2018-11-26T17:03:43.776Z,53.20
2018-11-26T17:06:11.212Z,52.43
2018-11-26T17:08:38.690Z,55.70
2018-11-26T17:11:06.238Z,50.90
2018-11-26T17:13:33.774Z,52.87
2018-11-26T17:16:01.418Z,54.37
2018-11-26T17:18:28.851Z,57.77
2018-11-26T17:20:56.622Z,57.07
2018-11-26T17:23:24.176Z,57.67
2018-11-26T17:25:51.771Z,63.93
2018-11-26T17:28:19.840Z,74.43
2018-11-26T17:30:47.357Z,65.43
2018-11-26T17:33:20.129Z,57.37
2018-11-26T17:35:47.788Z,62.93
2018-11-26T17:38:15.502Z,62.17
2018-11-26T17:40:42.968Z,57.80
2018-11-26T17:43:11.509Z,53.93
2018-11-26T17:45:39.187Z,54.97
2018-11-26T17:48:07.021Z,59.93
2018-11-26T17:50:37.147Z,47.70
2018-11-26T17:53:05.889Z,54.37
2018-11-26T17:55:33.763Z,53.40
2018-11-26T17:58:01.348Z,54.90
2018-11-26T18:00:32.306Z,55.60
2018-11-26T18:03:00.012Z,50.37
2018-11-26T18:05:28.277Z,46.50
2018-11-26T18:07:56.787Z,50.23
2018-11-26T18:10:24.452Z,47.33
2018-11-26T18:12:51.964Z,46.20
2018-11-26T18:15:19.538Z,45.17
2018-11-26T18:17:47.201Z,46.13
2018-11-26T18:20:18.336Z,43.23
2018-11-26T18:22:46.560Z,41.93
2018-11-26T18:25:14.524Z,47.07
2018-11-26T18:28:46.245Z,49.03
2018-11-26T18:31:13.839Z,52.47
2018-11-26T18:33:41.406Z,45.50
2018-11-26T18:36:09.189Z,47.27
2018-11-26T18:38:36.615Z,61.27
2018-11-26T18:41:04.282Z,56.07
2018-11-26T18:43:37.641Z,46.10
2018-11-26T18:46:05.380Z,40.53
2018-11-26T18:48:33.172Z,46.53
2018-11-26T18:51:06.279Z,42.70
2018-11-26T18:53:33.794Z,45.63
2018-11-26T18:56:01.200Z,43.13
2018-11-26T18:58:28.799Z,41.00
2018-11-26T19:00:58.416Z,46.80
2018-11-26T19:03:26.178Z,39.07
2018-11-26T19:05:54.055Z,38.20
2018-11-26T19:08:22.152Z,43.30
2018-11-26T19:10:57.661Z,37.40
2018-11-26T19:13:30.277Z,42.93
2018-11-26T19:16:00.583Z,46.20
2018-11-26T19:18:28.410Z,46.10
2018-11-26T19:20:55.851Z,52.67
2018-11-26T19:23:23.846Z,50.90
2018-11-26T19:25:51.850Z,51.30
2018-11-26T19:28:20.538Z,52.57
2018-11-26T19:30:47.190Z,47.80
2018-11-26T19:33:14.661Z,42.97
2018-11-26T19:35:42.230Z,44.63
2018-11-26T19:38:09.982Z,48.07
2018-11-26T19:40:38.190Z,38.17
2018-11-26T19:43:06.088Z,44.13
2018-11-26T19:45:34.199Z,51.90
2018-11-26T19:48:01.830Z,50.70
2018-11-26T19:50:30.203Z,44.37
2018-11-26T19:52:56.982Z,48.63
2018-11-26T19:55:25.282Z,49.80
2018-11-26T19:57:53.275Z,47.17
2018-11-26T20:00:22.584Z,50.57
2018-11-26T20:02:58.222Z,54.07
2018-11-26T20:05:34.438Z,51.93
2018-11-26T20:08:01.903Z,48.27
2018-11-26T20:10:34.878Z,49.90
2018-11-26T20:13:02.324Z,42.00
2018-11-26T20:18:03.783Z,58.20
2018-11-26T20:20:31.340Z,50.07
2018-11-26T20:22:58.779Z,49.03
2018-11-26T20:25:26.694Z,49.73
2018-11-26T20:27:54.224Z,56.57
2018-11-26T20:30:22.018Z,52.43
2018-11-26T20:32:49.629Z,46.97
2018-11-26T20:35:17.235Z,52.87
2018-11-26T20:37:44.839Z,45.70
2018-11-26T20:40:14.135Z,53.03
2018-11-26T20:42:45.542Z,57.73
2018-11-26T20:45:13.969Z,63.47
2018-11-26T20:47:41.565Z,66.10
2018-11-26T20:50:12.103Z,57.70
2018-11-26T20:52:39.585Z,53.27
2018-11-26T20:55:12.716Z,54.77
2018-11-26T20:57:40.377Z,62.80
2018-11-26T21:00:10.353Z,68.50
2018-11-26T21:02:38.290Z,68.17
2018-11-26T21:05:06.357Z,66.40
2018-11-26T21:07:33.881Z,63.60
2018-11-26T21:10:01.432Z,64.57
2018-11-26T21:12:29.111Z,65.40
2018-11-26T21:14:56.835Z,57.87
2018-11-26T21:17:24.652Z,64.57
2018-11-26T21:19:52.456Z,68.30
2018-11-26T21:22:19.920Z,61.70
2018-11-26T21:24:52.886Z,57.87
2018-11-26T21:27:20.344Z,56.50
2018-11-26T21:29:47.791Z,53.57
2018-11-26T21:32:15.624Z,49.70
2018-11-26T21:34:48.632Z,48.93
2018-11-26T21:37:16.237Z,54.13
2018-11-26T21:39:43.677Z,55.83
2018-11-26T21:42:12.021Z,55.23
2018-11-26T21:44:40.169Z,47.73
2018-11-26T21:47:13.280Z,50.17
2018-11-26T21:49:40.948Z,50.13
2018-11-26T21:52:08.405Z,50.10
2018-11-26T21:54:36.010Z,47.07
2018-11-26T21:57:03.474Z,48.70
2018-11-26T21:59:36.573Z,51.97
2018-11-26T22:02:04.157Z,57.53
2018-11-26T22:04:31.730Z,62.80
2018-11-26T22:06:59.529Z,51.33
2018-11-26T22:09:27.068Z,59.13
2018-11-26T22:11:56.825Z,52.90
2018-11-26T22:14:24.524Z,58.97
2018-11-26T22:16:52.146Z,52.87
2018-11-26T22:19:19.847Z,56.90
2018-11-26T22:21:52.793Z,55.93
2018-11-26T22:24:20.255Z,61.20
2018-11-26T22:26:47.806Z,62.00
2018-11-26T22:29:15.306Z,58.53
2018-11-26T22:31:43.057Z,55.50
2018-11-26T22:34:15.983Z,54.07
2018-11-26T22:36:43.862Z,50.37
2018-11-26T22:39:11.281Z,47.67
2018-11-26T22:41:38.872Z,52.50
2018-11-26T22:44:11.972Z,46.90
2018-11-26T22:46:39.437Z,49.07
2018-11-26T22:49:07.037Z,51.17
2018-11-26T22:51:34.612Z,52.23
2018-11-26T22:54:02.117Z,53.23
2018-11-26T22:56:29.568Z,55.97
2018-11-26T22:58:57.121Z,52.00
2018-11-26T23:01:29.918Z,59.80
2018-11-26T23:03:57.368Z,55.00
2018-11-26T23:06:24.982Z,53.37
2018-11-26T23:08:52.480Z,54.17
2018-11-26T23:11:19.973Z,52.90
2018-11-26T23:13:47.978Z,52.90
2018-11-26T23:16:15.874Z,44.70
2018-11-26T23:18:43.314Z,49.57
2018-11-26T23:21:10.761Z,48.87
2018-11-26T23:23:38.338Z,52.03
2018-11-26T23:26:11.593Z,50.93
2018-11-26T23:28:39.323Z,44.77
2018-11-26T23:31:06.904Z,42.33
2018-11-26T23:33:34.362Z,43.37
2018-11-26T23:36:07.462Z,39.80
2018-11-26T23:38:35.008Z,47.57
2018-11-26T23:41:02.569Z,45.07
2018-11-26T23:43:30.062Z,42.00
2018-11-26T23:45:57.486Z,43.67
2018-11-26T23:48:24.927Z,42.90
2018-11-26T23:50:52.510Z,44.53
2018-11-26T23:53:19.932Z,47.43
2018-11-26T23:55:47.437Z,43.70
2018-11-26T23:58:14.936Z,57.90
